Time;durP1;ratioP1;P1;durP2;ratioP2;P2;SDS_P1;SDS_P2;PMS_P1;PMS_P2;Temp;Humidity;BMP_temperature;BMP_pressure;BME280_temperature;BME280_humidity;BME280_pressure;Samples;Min_cycle;Max_cycle;Signal;HPM_P1;HPM_P2
2022/01/12 00:02:14;;;;;;;3.25;3.08;;;2.20;87.80;;;;;;5022821;28;20223;-69
2022/01/12 00:04:41;;;;;;;3.47;3.28;;;2.20;88.80;;;;;;5023727;28;20286;-69
2022/01/12 00:07:10;;;;;;;3.05;2.85;;;2.20;89.30;;;;;;5020859;28;20222;-69
2022/01/12 00:09:37;;;;;;;3.00;2.90;;;2.10;89.00;;;;;;5022780;28;20274;-69
2022/01/12 00:12:04;;;;;;;3.50;3.30;;;2.10;89.00;;;;;;5023593;28;20293;-69
2022/01/12 00:14:32;;;;;;;3.70;3.50;;;2.00;88.90;;;;;;5029942;28;20446;-69
2022/01/12 00:16:59;;;;;;;3.38;3.17;;;2.00;87.50;;;;;;5021983;28;20220;-69
2022/01/12 00:19:29;;;;;;;3.28;3.08;;;2.00;87.80;;;;;;5026287;28;20620;-69
2022/01/12 00:21:56;;;;;;;3.65;3.45;;;2.00;88.40;;;;;;5026381;28;20219;-69
2022/01/12 00:24:28;;;;;;;3.70;3.50;;;1.90;89.40;;;;;;5029376;28;20291;-69
2022/01/12 00:35:14;;;;;;;2.97;2.78;;;1.70;90.00;;;;;;5032993;28;20251;-69
2022/01/12 00:37:41;;;;;;;3.30;3.10;;;1.70;89.90;;;;;;5028979;28;20226;-68
2022/01/12 00:40:11;;;;;;;3.33;3.13;;;1.70;90.30;;;;;;5034298;28;20203;-69
2022/01/12 00:42:38;;;;;;;3.30;3.10;;;1.80;89.80;;;;;;5026138;28;20263;-69
2022/01/12 00:45:08;;;;;;;4.00;3.80;;;1.80;87.90;;;;;;5035630;28;20206;-68
2022/01/12 00:47:35;;;;;;;3.85;3.65;;;1.70;87.60;;;;;;5035772;28;20219;-69
2022/01/12 00:50:02;;;;;;;3.90;3.60;;;1.80;87.50;;;;;;5034913;28;20855;-69
2022/01/12 00:52:29;;;;;;;3.58;3.38;;;1.80;88.00;;;;;;5039007;28;20223;-69
2022/01/12 00:54:56;;;;;;;3.80;3.60;;;1.80;90.10;;;;;;5036806;28;20637;-68
2022/01/12 00:57:24;;;;;;;3.67;3.47;;;1.80;89.40;;;;;;5034325;28;20211;-69
2022/01/12 00:59:51;;;;;;;3.72;3.53;;;1.70;89.80;;;;;;5040202;28;20254;-69
2022/01/12 01:02:18;;;;;;;3.53;3.35;;;1.70;89.80;;;;;;5031829;28;20226;-69
2022/01/12 01:04:45;;;;;;;3.10;2.90;;;1.70;89.60;;;;;;5037421;28;20195;-69
2022/01/12 01:07:12;;;;;;;3.13;2.97;;;1.70;90.20;;;;;;5037505;28;20203;-69
2022/01/12 01:09:45;;;;;;;3.40;3.30;;;1.70;89.80;;;;;;5035437;28;20202;-69
2022/01/12 01:12:12;;;;;;;3.38;3.28;;;1.70;89.70;;;;;;5096913;22;20276;-75
2022/01/12 01:14:48;;;;;;;3.50;3.30;;;1.70;90.10;;;;;;5059313;28;20223;-75
2022/01/12 01:25:32;;;;;;;3.28;3.08;;;1.70;88.90;;;;;;5045546;28;20194;-75
2022/01/12 01:27:59;;;;;;;3.42;3.22;;;1.70;89.00;;;;;;5042615;28;20301;-76
2022/01/12 01:30:28;;;;;;;3.33;3.13;;;1.70;89.10;;;;;;5050689;28;20195;-75
2022/01/12 01:32:57;;;;;;;3.65;3.45;;;1.50;89.10;;;;;;5042539;28;20272;-75
2022/01/12 01:35:26;;;;;;;3.90;3.70;;;1.60;89.30;;;;;;5039768;28;20226;-75
2022/01/12 01:37:54;;;;;;;3.85;3.65;;;1.60;90.00;;;;;;5042673;28;20283;-75
2022/01/12 01:40:21;;;;;;;4.00;3.70;;;1.60;89.60;;;;;;5038880;28;20200;-75
2022/01/12 01:43:07;;;;;;;3.80;3.60;;;1.60;89.60;;;;;;5046495;28;20219;-75
2022/01/12 01:53:52;;;;;;;3.72;3.53;;;1.50;90.60;;;;;;5042929;28;20260;-75
2022/01/12 01:56:20;;;;;;;3.70;3.50;;;1.50;90.40;;;;;;5043989;28;20207;-74
2022/01/12 01:58:48;;;;;;;3.50;3.30;;;1.50;90.50;;;;;;5041766;28;20663;-75
2022/01/12 02:01:17;;;;;;;3.47;3.28;;;1.60;90.70;;;;;;5045198;28;20314;-75
2022/01/12 02:03:44;;;;;;;3.10;3.00;;;1.60;90.20;;;;;;5040356;28;20218;-75
2022/01/12 02:06:12;;;;;;;3.55;3.35;;;1.60;90.20;;;;;;5042754;28;20195;-75
2022/01/12 02:08:39;;;;;;;2.92;2.83;;;1.60;90.00;;;;;;5043397;28;20219;-75
2022/01/12 02:11:06;;;;;;;3.13;3.03;;;1.60;90.20;;;;;;5039952;28;20222;-74
2022/01/12 02:13:34;;;;;;;3.55;3.35;;;1.60;90.40;;;;;;5046695;28;20230;-76
2022/01/12 02:16:01;;;;;;;3.13;3.00;;;1.60;90.00;;;;;;5040218;28;20306;-74
2022/01/12 02:18:52;;;;;;;3.22;3.13;;;1.60;90.10;;;;;;5037916;28;20230;-75
2022/01/12 02:35:37;;;;;;;3.17;3.08;;;1.50;90.50;;;;;;5041115;28;20226;-74
2022/01/12 02:40:53;;;;;;;3.55;3.35;;;1.40;89.20;;;;;;5046396;28;20683;-75
2022/01/12 02:43:38;;;;;;;3.70;3.50;;;1.30;90.80;;;;;;5040421;28;20292;-74
2022/01/12 02:53:38;;;;;;;4.10;3.90;;;1.10;89.70;;;;;;5043812;28;20258;-74
2022/01/12 02:54:22;;;;;;;3.45;3.25;;;1.20;88.90;;;;;;5040735;28;20214;-74
2022/01/12 02:56:49;;;;;;;3.67;3.47;;;1.20;88.90;;;;;;5042204;28;20203;-74
2022/01/12 02:59:16;;;;;;;4.07;3.88;;;1.20;89.20;;;;;;5035196;28;20234;-75
2022/01/12 03:02:05;;;;;;;3.42;3.33;;;1.20;89.90;;;;;;5042510;28;20219;-75
2022/01/12 03:04:32;;;;;;;3.67;3.47;;;1.10;90.00;;;;;;5043172;28;20219;-75
2022/01/12 03:07:06;;;;;;;3.40;3.20;;;1.10;90.40;;;;;;5041417;28;20192;-75
2022/01/12 03:09:34;;;;;;;3.40;3.30;;;1.10;90.60;;;;;;5042027;28;20223;-75
2022/01/12 03:12:02;;;;;;;3.28;3.17;;;1.00;90.40;;;;;;5040171;28;20234;-75
2022/01/12 03:14:29;;;;;;;4.10;3.90;;;1.00;90.70;;;;;;5044036;28;20241;-75
2022/01/12 03:16:56;;;;;;;3.53;3.33;;;1.00;90.30;;;;;;5041276;28;20571;-75
2022/01/12 03:19:23;;;;;;;3.90;3.70;;;1.00;90.20;;;;;;5054724;28;20287;-75
2022/01/12 03:21:50;;;;;;;3.50;3.30;;;0.90;90.60;;;;;;5039482;28;20215;-74
2022/01/12 03:24:17;;;;;;;4.03;3.83;;;0.90;90.90;;;;;;5039003;28;20269;-74
2022/01/12 03:26:45;;;;;;;3.92;3.63;;;0.80;90.90;;;;;;5045357;28;20195;-74
2022/01/12 03:29:12;;;;;;;3.58;3.40;;;0.80;90.70;;;;;;5042479;28;20594;-74
2022/01/12 03:31:39;;;;;;;3.53;3.33;;;0.80;91.60;;;;;;5044018;28;20269;-74
2022/01/12 03:34:09;;;;;;;3.67;3.47;;;0.80;90.80;;;;;;5042781;28;20761;-74
2022/01/12 03:36:54;;;;;;;3.38;3.20;;;0.80;91.00;;;;;;5040842;28;20195;-74
2022/01/12 03:39:21;;;;;;;3.97;3.67;;;0.90;90.90;;;;;;5040069;28;20215;-74
2022/01/12 03:41:50;;;;;;;3.90;3.70;;;0.90;90.10;;;;;;5044861;28;20277;-74
2022/01/12 03:44:18;;;;;;;3.80;3.60;;;0.80;91.00;;;;;;5040924;28;20215;-76
2022/01/12 03:46:47;;;;;;;3.47;3.28;;;0.80;91.40;;;;;;5042067;28;20282;-74
2022/01/12 03:49:16;;;;;;;4.00;3.80;;;0.80;91.20;;;;;;5044268;28;20227;-76
2022/01/12 03:51:43;;;;;;;3.95;3.75;;;0.70;91.10;;;;;;5040736;28;20226;-74
2022/01/12 03:54:11;;;;;;;3.33;3.13;;;0.70;90.50;;;;;;5042635;28;20215;-74
2022/01/12 03:56:38;;;;;;;3.47;3.30;;;0.70;90.30;;;;;;5042928;28;20218;-74
2022/01/12 03:59:07;;;;;;;3.60;3.40;;;0.70;90.10;;;;;;5040007;28;20633;-74
2022/01/12 04:01:35;;;;;;;4.15;3.95;;;0.70;90.30;;;;;;5042089;28;20281;-76
2022/01/12 04:04:08;;;;;;;3.97;3.70;;;0.70;91.10;;;;;;5039947;28;20310;-76
2022/01/12 04:09:21;;;;;;;4.00;3.80;;;0.80;91.10;;;;;;5038959;28;20268;-76
2022/01/12 04:11:48;;;;;;;3.78;3.58;;;0.70;91.10;;;;;;5042951;28;20231;-76
2022/01/12 04:14:17;;;;;;;3.33;3.13;;;0.60;91.00;;;;;;5059256;28;20226;-77
2022/01/12 04:16:44;;;;;;;3.80;3.60;;;0.60;91.20;;;;;;5045682;28;20227;-76
2022/01/12 04:19:11;;;;;;;3.17;3.08;;;0.50;90.80;;;;;;5049590;28;20210;-77
2022/01/12 04:21:43;;;;;;;3.83;3.63;;;0.50;91.80;;;;;;5074000;28;20210;-75
2022/01/12 04:24:10;;;;;;;3.47;3.28;;;0.50;91.40;;;;;;5060210;28;20219;-76
2022/01/12 04:26:37;;;;;;;4.10;3.90;;;0.50;91.70;;;;;;5043163;28;20565;-76
2022/01/12 04:29:06;;;;;;;3.50;3.30;;;0.50;91.50;;;;;;5047804;28;20223;-75
2022/01/12 04:31:35;;;;;;;3.22;3.13;;;0.60;91.30;;;;;;5046461;28;20233;-75
2022/01/12 04:34:03;;;;;;;3.90;3.63;;;0.60;91.30;;;;;;5043423;28;20237;-75
2022/01/12 04:36:31;;;;;;;3.45;3.25;;;0.60;91.50;;;;;;5047315;28;20306;-76
2022/01/12 04:38:58;;;;;;;3.78;3.58;;;0.60;91.80;;;;;;5043063;28;20231;-76
2022/01/12 04:41:26;;;;;;;4.00;3.80;;;0.60;91.40;;;;;;5049064;28;20258;-76
2022/01/12 04:43:56;;;;;;;3.65;3.45;;;0.60;91.50;;;;;;5042572;28;20243;-76
2022/01/12 04:46:35;;;;;;;3.65;3.45;;;0.60;91.50;;;;;;5045820;28;20250;-76
2022/01/12 04:51:48;;;;;;;3.95;3.75;;;0.60;91.90;;;;;;5040767;28;20225;-75
2022/01/12 04:54:15;;;;;;;3.78;3.58;;;0.60;91.90;;;;;;5044134;28;20273;-76
2022/01/12 04:56:42;;;;;;;3.55;3.45;;;0.60;91.90;;;;;;5044901;28;20218;-76
2022/01/12 04:59:09;;;;;;;3.60;3.40;;;0.60;91.70;;;;;;5042958;28;20502;-75
2022/01/12 05:01:48;;;;;;;2.78;2.67;;;0.60;91.50;;;;;;5045651;28;20223;-76
2022/01/12 05:12:42;;;;;;;3.50;3.40;;;0.60;91.20;;;;;;5053821;28;20296;-76
2022/01/12 05:12:54;;;;;;;3.70;3.58;;;0.50;91.40;;;;;;5043893;28;20232;-76
2022/01/12 05:15:28;;;;;;;4.00;3.80;;;0.50;91.80;;;;;;5045164;28;20214;-76
2022/01/12 05:17:55;;;;;;;3.95;3.75;;;0.50;91.90;;;;;;5039078;28;20221;-76
2022/01/12 05:20:24;;;;;;;3.38;3.13;;;0.50;91.90;;;;;;5046146;28;20230;-75
2022/01/12 05:22:52;;;;;;;3.65;3.45;;;0.50;92.10;;;;;;5047755;28;20223;-76
2022/01/12 05:25:19;;;;;;;3.45;3.20;;;0.50;92.10;;;;;;5044939;28;20297;-76
2022/01/12 05:27:47;;;;;;;3.97;3.78;;;0.50;92.10;;;;;;5043182;28;20199;-76
2022/01/12 05:30:14;;;;;;;3.95;3.75;;;0.50;92.10;;;;;;5045687;28;20571;-75
2022/01/12 05:32:42;;;;;;;4.28;3.92;;;0.50;92.10;;;;;;5045612;28;20227;-76
2022/01/12 05:35:11;;;;;;;3.50;3.30;;;0.40;91.70;;;;;;5041333;28;20701;-76
2022/01/12 05:37:40;;;;;;;4.07;3.78;;;0.30;91.90;;;;;;5041184;28;20578;-76
2022/01/12 05:40:09;;;;;;;4.00;3.80;;;0.30;91.80;;;;;;5046661;28;20246;-76
2022/01/12 05:42:36;;;;;;;4.22;4.03;;;0.20;91.80;;;;;;5046451;28;20273;-76
2022/01/12 05:45:04;;;;;;;4.28;3.97;;;0.10;91.80;;;;;;5044376;28;20697;-75
2022/01/12 05:49:33;;;;;;;4.10;3.90;;;0.00;92.00;;;;;;5045530;28;20304;-75
2022/01/12 05:50:24;;;;;;;4.03;3.83;;;0.00;92.50;;;;;;5042992;28;20215;-75
2022/01/12 05:52:52;;;;;;;3.92;3.72;;;-0.10;92.90;;;;;;5047153;28;21568;-76
2022/01/12 05:55:20;;;;;;;3.60;3.30;;;-0.10;93.10;;;;;;5043927;28;20888;-74
2022/01/12 05:57:48;;;;;;;3.92;3.72;;;0.00;93.10;;;;;;5043900;28;20609;-75
2022/01/12 06:00:17;;;;;;;3.70;3.50;;;0.00;93.10;;;;;;5043872;28;20238;-76
2022/01/12 06:02:44;;;;;;;3.80;3.60;;;0.00;92.90;;;;;;5054500;28;20220;-77
2022/01/12 06:05:14;;;;;;;3.83;3.63;;;0.00;92.80;;;;;;5047228;28;20223;-76
2022/01/12 06:07:41;;;;;;;3.88;3.67;;;0.00;92.80;;;;;;5041459;28;20195;-76
2022/01/12 06:10:10;;;;;;;3.10;2.90;;;0.00;93.00;;;;;;5040346;28;20313;-76
2022/01/12 06:12:38;;;;;;;3.58;3.38;;;0.00;92.60;;;;;;5043797;28;20313;-76
2022/01/12 06:15:06;;;;;;;4.15;3.85;;;0.00;92.70;;;;;;5041314;28;20230;-76
2022/01/12 06:17:33;;;;;;;3.80;3.60;;;0.00;92.70;;;;;;5040572;28;20198;-75
2022/01/12 06:20:00;;;;;;;3.55;3.35;;;0.00;92.60;;;;;;5043727;28;20215;-76
2022/01/12 06:22:27;;;;;;;3.45;3.25;;;-0.10;92.60;;;;;;5043934;28;20276;-76
2022/01/12 06:24:57;;;;;;;4.85;4.45;;;0.00;92.60;;;;;;5042842;28;20219;-76
2022/01/12 06:27:28;;;;;;;3.78;3.58;;;0.00;92.70;;;;;;5048317;28;20201;-76
2022/01/12 06:30:04;;;;;;;3.60;3.40;;;0.00;92.60;;;;;;5044037;28;21561;-75
2022/01/12 06:32:32;;;;;;;4.18;3.72;;;0.00;92.60;;;;;;5039674;28;20686;-75
2022/01/12 06:34:59;;;;;;;3.80;3.60;;;0.00;92.70;;;;;;5039249;28;20215;-76
2022/01/12 06:37:26;;;;;;;3.70;3.50;;;0.00;92.60;;;;;;5037546;28;20219;-76
2022/01/12 06:39:53;;;;;;;3.58;3.40;;;-0.10;92.80;;;;;;5041520;28;20219;-75
2022/01/12 06:42:20;;;;;;;3.53;3.33;;;-0.10;92.60;;;;;;5043122;28;20227;-76
2022/01/12 06:44:49;;;;;;;5.10;4.80;;;-0.20;92.60;;;;;;5044438;28;20256;-76
2022/01/12 06:47:18;;;;;;;3.78;3.47;;;-0.20;93.00;;;;;;5044681;28;20248;-76
2022/01/12 06:49:45;;;;;;;4.00;3.80;;;-0.20;93.10;;;;;;5042095;28;20230;-76
2022/01/12 06:52:12;;;;;;;3.67;3.42;;;-0.20;93.30;;;;;;5043309;28;20224;-75
2022/01/12 06:54:40;;;;;;;3.75;3.55;;;-0.20;93.20;;;;;;5042957;28;20604;-76
2022/01/12 06:57:07;;;;;;;4.60;4.32;;;-0.20;93.00;;;;;;5057857;28;20202;-76
2022/01/12 06:59:34;;;;;;;4.13;3.92;;;-0.30;93.40;;;;;;5065560;28;20221;-76
2022/01/12 07:02:03;;;;;;;4.80;4.50;;;-0.30;93.10;;;;;;5043378;28;20227;-76
2022/01/12 07:04:30;;;;;;;4.40;4.10;;;-0.30;92.90;;;;;;5038359;28;20305;-75
2022/01/12 07:06:57;;;;;;;4.30;4.10;;;-0.40;93.10;;;;;;5043064;28;20195;-76
2022/01/12 07:09:24;;;;;;;4.30;4.00;;;-0.40;93.30;;;;;;5041952;28;20865;-76
2022/01/12 07:11:51;;;;;;;4.20;3.92;;;-0.40;92.90;;;;;;5045238;28;20231;-76
2022/01/12 07:14:18;;;;;;;4.20;4.00;;;-0.40;92.90;;;;;;5044629;28;20288;-75
2022/01/12 07:16:45;;;;;;;5.22;4.72;;;-0.40;93.10;;;;;;5118669;22;20234;-71
2022/01/12 07:19:14;;;;;;;6.97;5.47;;;-0.40;93.10;;;;;;5044841;28;20233;-71
2022/01/12 07:21:41;;;;;;;5.38;4.97;;;-0.30;93.10;;;;;;5043474;28;20197;-71
2022/01/12 07:24:08;;;;;;;4.80;4.47;;;-0.30;93.10;;;;;;5044945;28;20314;-72
2022/01/12 07:26:35;;;;;;;4.50;4.20;;;-0.30;93.10;;;;;;5048738;28;20230;-71
2022/01/12 07:29:03;;;;;;;4.80;4.50;;;-0.20;93.40;;;;;;5044054;28;20229;-72
2022/01/12 07:31:30;;;;;;;5.05;4.72;;;-0.20;93.50;;;;;;5041265;28;20202;-71
2022/01/12 07:33:57;;;;;;;5.50;5.10;;;-0.20;93.40;;;;;;5047007;28;20280;-72
2022/01/12 07:36:25;;;;;;;5.60;5.20;;;-0.20;93.20;;;;;;5043468;28;20211;-72
2022/01/12 07:38:55;;;;;;;5.35;4.95;;;-0.20;93.50;;;;;;5046785;28;20229;-72
2022/01/12 07:41:22;;;;;;;5.45;4.90;;;-0.20;93.00;;;;;;5045709;28;20198;-72
2022/01/12 07:43:49;;;;;;;5.00;4.60;;;-0.20;94.00;;;;;;5045048;28;20197;-73
2022/01/12 07:46:16;;;;;;;4.63;4.30;;;-0.10;94.30;;;;;;5045456;28;20240;-73
2022/01/12 07:48:43;;;;;;;4.95;4.65;;;0.00;93.50;;;;;;5050470;28;20199;-74
2022/01/12 07:51:10;;;;;;;5.05;4.75;;;0.00;94.60;;;;;;5049998;28;20198;-73
2022/01/12 07:53:39;;;;;;;4.80;4.50;;;0.10;94.70;;;;;;5044251;28;20347;-75
2022/01/12 07:56:07;;;;;;;4.70;4.40;;;0.20;94.50;;;;;;5046189;28;20227;-72
2022/01/12 07:58:34;;;;;;;4.90;4.60;;;0.20;94.40;;;;;;5048305;28;20230;-73
2022/01/12 08:01:01;;;;;;;5.30;4.80;;;0.20;94.10;;;;;;5043288;28;20215;-72
2022/01/12 08:03:28;;;;;;;5.13;4.72;;;0.20;93.50;;;;;;5048261;28;20198;-73
2022/01/12 08:05:56;;;;;;;4.72;4.40;;;0.10;93.80;;;;;;5046158;28;20222;-74
2022/01/12 08:08:24;;;;;;;4.88;4.55;;;0.00;94.00;;;;;;5045680;28;20651;-72
2022/01/12 08:10:52;;;;;;;4.15;3.80;;;-0.10;93.70;;;;;;5046134;28;20227;-72
2022/01/12 08:13:19;;;;;;;5.30;4.90;;;-0.10;93.70;;;;;;5042880;28;20662;-74
2022/01/12 08:15:46;;;;;;;4.82;4.53;;;0.00;93.90;;;;;;5044055;28;20227;-73
2022/01/12 08:18:13;;;;;;;4.50;4.20;;;0.00;92.70;;;;;;5044388;28;20230;-72
2022/01/12 08:20:42;;;;;;;5.15;4.85;;;-0.10;92.50;;;;;;5044353;28;20257;-71
2022/01/12 08:23:09;;;;;;;4.93;4.53;;;-0.10;92.50;;;;;;5041793;28;20613;-74
2022/01/12 08:25:37;;;;;;;4.90;4.50;;;0.40;92.70;;;;;;5043847;28;20620;-72
2022/01/12 08:28:05;;;;;;;4.55;4.15;;;1.50;91.70;;;;;;5046792;28;20648;-72
2022/01/12 08:30:35;;;;;;;4.07;3.80;;;2.60;90.60;;;;;;5039719;28;20309;-73
2022/01/12 08:33:03;;;;;;;4.50;4.10;;;3.60;89.70;;;;;;5047820;28;20234;-76
2022/01/12 08:35:31;;;;;;;4.85;3.85;;;4.30;86.40;;;;;;5049739;28;20221;-74
2022/01/12 08:37:58;;;;;;;5.75;5.25;;;4.90;85.40;;;;;;5049046;28;20226;-73
2022/01/12 08:40:26;;;;;;;4.05;3.75;;;5.20;83.50;;;;;;5042630;28;20308;-72
2022/01/12 08:42:53;;;;;;;4.55;4.25;;;5.90;84.40;;;;;;5046818;28;20202;-74
2022/01/12 08:45:21;;;;;;;6.65;6.00;;;6.70;83.50;;;;;;5045648;28;20336;-75
2022/01/12 08:47:49;;;;;;;5.45;4.95;;;7.00;81.40;;;;;;5046155;28;20809;-74
2022/01/12 08:50:17;;;;;;;7.53;4.50;;;7.40;79.80;;;;;;5041045;28;20486;-74
2022/01/12 08:52:46;;;;;;;4.18;3.80;;;7.90;80.90;;;;;;5046051;28;20207;-72
2022/01/12 08:55:13;;;;;;;5.72;3.65;;;8.20;79.20;;;;;;5047650;28;20618;-73
2022/01/12 08:57:40;;;;;;;4.00;3.60;;;8.20;78.60;;;;;;5045151;28;20226;-73
2022/01/12 09:00:09;;;;;;;3.60;3.30;;;8.50;79.10;;;;;;5043178;28;20218;-72
2022/01/12 09:02:37;;;;;;;3.30;3.10;;;9.00;77.60;;;;;;5042123;28;20200;-72
2022/01/12 09:05:05;;;;;;;3.30;3.10;;;9.30;76.00;;;;;;5041328;28;20215;-74
2022/01/12 09:07:32;;;;;;;3.38;3.17;;;9.60;76.20;;;;;;5042679;28;20219;-74
2022/01/12 09:09:59;;;;;;;4.10;3.63;;;10.10;74.90;;;;;;5043802;28;20285;-73
2022/01/12 09:12:27;;;;;;;3.33;3.13;;;9.80;75.00;;;;;;5041324;28;20198;-74
2022/01/12 09:14:54;;;;;;;3.83;3.53;;;9.70;75.00;;;;;;5041346;28;20464;-73
2022/01/12 09:17:23;;;;;;;3.05;2.85;;;9.30;73.90;;;;;;5042030;28;20276;-73
2022/01/12 09:19:52;;;;;;;3.33;3.08;;;9.20;75.30;;;;;;5042418;28;20214;-74
2022/01/12 09:22:20;;;;;;;4.40;3.35;;;9.50;75.80;;;;;;5043093;28;20257;-73
2022/01/12 09:24:49;;;;;;;2.85;2.65;;;10.40;73.60;;;;;;5037588;28;20601;-73
2022/01/12 09:27:17;;;;;;;3.15;2.85;;;11.70;71.00;;;;;;5041007;28;20311;-73
2022/01/12 09:29:45;;;;;;;2.97;2.78;;;13.10;66.40;;;;;;5038437;28;20224;-75
2022/01/12 09:32:12;;;;;;;3.83;3.10;;;14.80;61.60;;;;;;5045329;28;20202;-74
2022/01/12 09:34:40;;;;;;;2.75;2.55;;;16.00;58.70;;;;;;5040828;28;20234;-74
2022/01/12 09:37:08;;;;;;;3.13;2.70;;;17.30;55.40;;;;;;5044172;28;20227;-73
2022/01/12 09:39:36;;;;;;;2.97;2.75;;;17.80;54.20;;;;;;5042224;28;20222;-74
2022/01/12 09:42:03;;;;;;;2.67;2.47;;;19.10;53.10;;;;;;5041192;28;20206;-74
2022/01/12 09:44:32;;;;;;;2.45;2.25;;;19.80;51.10;;;;;;5043901;28;20227;-74
2022/01/12 09:47:01;;;;;;;2.30;2.10;;;20.30;50.30;;;;;;5042527;28;20214;-73
2022/01/12 09:49:28;;;;;;;6.20;2.70;;;20.80;49.60;;;;;;5042911;28;20275;-74
2022/01/12 09:51:57;;;;;;;3.10;2.65;;;21.40;48.70;;;;;;5037373;28;20195;-73
2022/01/12 09:54:27;;;;;;;2.88;2.45;;;21.00;47.20;;;;;;5041806;28;20229;-75
2022/01/12 09:56:55;;;;;;;3.17;2.65;;;20.70;47.50;;;;;;5038271;28;20219;-73
2022/01/12 09:59:22;;;;;;;2.88;2.67;;;20.50;47.60;;;;;;5041985;28;20199;-73
2022/01/12 10:01:49;;;;;;;4.47;3.13;;;19.70;49.10;;;;;;5043365;28;20282;-72
2022/01/12 10:04:18;;;;;;;3.20;2.90;;;19.00;49.40;;;;;;5042295;28;20269;-72
2022/01/12 10:06:47;;;;;;;3.55;2.40;;;18.00;50.60;;;;;;5039848;28;20221;-72
2022/01/12 10:09:14;;;;;;;3.05;2.78;;;16.50;52.70;;;;;;5036856;28;20195;-73
2022/01/12 10:11:52;;;;;;;2.60;2.40;;;15.10;54.50;;;;;;5040058;28;20214;-72
2022/01/12 10:14:19;;;;;;;2.42;2.22;;;13.80;56.70;;;;;;5039265;28;20628;-72
2022/01/12 10:16:54;;;;;;;2.47;2.28;;;13.20;58.30;;;;;;5039104;28;20388;-72
2022/01/12 10:19:29;;;;;;;2.67;2.47;;;12.80;58.90;;;;;;5038370;28;20207;-72
2022/01/12 10:21:56;;;;;;;3.00;2.72;;;12.20;59.80;;;;;;5042369;28;20506;-72
2022/01/12 10:24:25;;;;;;;2.30;2.10;;;11.80;61.70;;;;;;5043805;28;20617;-72
2022/01/12 10:26:55;;;;;;;2.75;2.55;;;11.60;61.90;;;;;;5042104;28;20230;-72
2022/01/12 10:29:23;;;;;;;3.22;2.92;;;11.70;62.60;;;;;;5042540;28;20275;-72
2022/01/12 10:31:53;;;;;;;2.95;2.65;;;11.30;61.30;;;;;;5040794;28;20896;-73
2022/01/12 10:34:23;;;;;;;2.45;2.35;;;11.10;63.50;;;;;;5041094;28;20666;-73
2022/01/12 10:36:52;;;;;;;2.83;2.63;;;11.20;62.70;;;;;;5043387;28;20364;-73
2022/01/12 10:39:21;;;;;;;3.92;2.72;;;11.20;62.60;;;;;;5039710;28;20615;-73
2022/01/12 10:42:03;;;;;;;2.78;2.58;;;10.80;62.90;;;;;;5043338;28;20737;-72
2022/01/12 10:44:33;;;;;;;3.03;2.83;;;10.70;63.90;;;;;;5040686;28;20191;-73
2022/01/12 10:47:08;;;;;;;3.13;2.85;;;10.60;63.60;;;;;;5041442;28;20445;-73
2022/01/12 10:49:36;;;;;;;3.20;2.95;;;10.40;64.30;;;;;;5042806;28;20230;-73
2022/01/12 10:52:06;;;;;;;2.85;2.65;;;10.50;65.30;;;;;;5038881;28;20195;-72
2022/01/12 10:54:45;;;;;;;2.75;2.55;;;10.80;64.90;;;;;;5042465;28;20673;-71
2022/01/12 10:57:21;;;;;;;3.35;2.65;;;11.00;63.30;;;;;;5038577;28;20215;-72
2022/01/12 11:00:01;;;;;;;2.72;2.50;;;11.20;63.30;;;;;;5040166;28;20242;-72
2022/01/12 11:02:29;;;;;;;2.67;2.47;;;11.10;63.80;;;;;;5040441;28;20709;-73
2022/01/12 11:04:58;;;;;;;2.47;2.28;;;10.90;64.60;;;;;;5034635;28;20227;-72
2022/01/12 11:07:26;;;;;;;5.00;2.90;;;10.90;64.10;;;;;;5038246;28;20742;-72
2022/01/12 11:09:58;;;;;;;4.35;2.85;;;11.10;64.30;;;;;;5039594;28;20318;-70
2022/01/12 11:12:27;;;;;;;3.40;3.10;;;10.90;64.40;;;;;;5046376;28;20191;-71
2022/01/12 11:14:54;;;;;;;3.60;3.30;;;10.90;65.60;;;;;;5036396;28;20218;-71
2022/01/12 11:17:21;;;;;;;3.72;3.33;;;10.90;65.00;;;;;;5043442;28;20215;-71
2022/01/12 11:19:55;;;;;;;3.33;3.13;;;10.70;62.50;;;;;;5039906;28;20281;-71
2022/01/12 11:22:36;;;;;;;3.15;2.95;;;10.60;65.00;;;;;;5038990;28;20206;-71
2022/01/12 11:25:04;;;;;;;3.22;2.97;;;10.30;63.90;;;;;;5034197;28;20224;-71
2022/01/12 11:27:32;;;;;;;4.32;3.00;;;10.30;62.70;;;;;;5038515;28;20233;-71
2022/01/12 11:29:59;;;;;;;5.05;2.92;;;10.30;63.20;;;;;;5039479;28;20230;-71
2022/01/12 11:32:27;;;;;;;2.78;2.53;;;10.20;63.60;;;;;;5041712;28;20205;-71
2022/01/12 11:35:01;;;;;;;2.80;2.60;;;10.10;64.00;;;;;;5039742;28;20222;-71
2022/01/12 11:37:28;;;;;;;2.53;2.33;;;10.10;64.50;;;;;;5041981;28;20313;-75
2022/01/12 11:40:06;;;;;;;5.03;2.47;;;9.90;62.50;;;;;;5042005;28;20272;-74
2022/01/12 11:42:37;;;;;;;3.28;2.33;;;9.80;62.30;;;;;;5044650;28;20215;-75
2022/01/12 11:45:04;;;;;;;2.70;2.50;;;9.90;65.30;;;;;;5041110;28;20239;-72
2022/01/12 11:47:32;;;;;;;3.10;2.45;;;10.00;64.50;;;;;;5042329;28;20541;-73
2022/01/12 11:49:59;;;;;;;2.50;2.30;;;9.80;63.00;;;;;;5039330;28;20626;-71
2022/01/12 11:52:31;;;;;;;2.67;2.47;;;9.80;64.70;;;;;;5043251;28;20210;-75
2022/01/12 11:55:10;;;;;;;4.38;2.78;;;9.90;63.60;;;;;;5041507;28;20221;-73
2022/01/12 11:57:42;;;;;;;4.15;2.85;;;10.00;63.40;;;;;;5043300;28;20223;-73
2022/01/12 12:00:13;;;;;;;2.90;2.70;;;10.20;64.70;;;;;;5040933;28;20357;-73
2022/01/12 12:02:42;;;;;;;3.00;2.75;;;10.30;65.20;;;;;;5039999;28;20272;-72
2022/01/12 12:05:10;;;;;;;2.95;2.75;;;10.70;66.10;;;;;;5039226;28;20697;-72
2022/01/12 12:07:45;;;;;;;2.67;2.47;;;11.00;65.50;;;;;;5051022;28;20688;-72
2022/01/12 12:10:15;;;;;;;4.20;2.75;;;11.00;62.90;;;;;;5048024;28;20284;-73
2022/01/12 12:12:44;;;;;;;3.00;2.72;;;10.90;62.20;;;;;;5053225;28;20245;-72
2022/01/12 12:15:12;;;;;;;4.78;2.80;;;10.90;61.60;;;;;;5047568;28;20292;-72
2022/01/12 12:17:41;;;;;;;2.60;2.35;;;10.80;64.50;;;;;;5050641;28;20230;-72
2022/01/12 12:20:11;;;;;;;2.70;2.50;;;10.90;64.60;;;;;;5046494;28;20219;-72
2022/01/12 12:22:42;;;;;;;3.63;2.70;;;10.90;63.90;;;;;;5039449;28;20202;-72
2022/01/12 12:25:11;;;;;;;2.40;2.20;;;11.00;64.70;;;;;;5032107;28;20734;-72
2022/01/12 12:27:40;;;;;;;3.08;2.78;;;11.10;64.50;;;;;;5038643;28;20210;-75
2022/01/12 12:30:13;;;;;;;4.18;2.58;;;11.10;65.20;;;;;;5041355;28;20231;-73
2022/01/12 12:32:41;;;;;;;2.53;2.33;;;11.00;66.50;;;;;;5035442;28;20203;-73
2022/01/12 12:35:11;;;;;;;2.70;2.20;;;10.90;64.00;;;;;;5039537;28;20219;-73
2022/01/12 12:37:40;;;;;;;2.78;2.58;;;10.90;64.20;;;;;;5046415;28;20223;-71
2022/01/12 12:40:22;;;;;;;2.65;2.45;;;11.00;65.40;;;;;;5041355;28;20241;-71
2022/01/12 12:42:59;;;;;;;5.10;2.30;;;11.10;65.10;;;;;;5042142;28;20199;-71
2022/01/12 12:45:41;;;;;;;3.30;3.00;;;11.10;63.30;;;;;;5041470;28;20221;-71
2022/01/12 12:48:10;;;;;;;2.50;2.30;;;10.60;64.30;;;;;;5041870;28;20291;-71
2022/01/12 12:50:37;;;;;;;2.80;2.60;;;10.40;64.60;;;;;;5043845;28;20296;-71
2022/01/12 12:53:04;;;;;;;5.00;2.47;;;10.30;65.40;;;;;;5045067;28;20206;-71
2022/01/12 12:55:35;;;;;;;2.95;2.65;;;10.40;64.30;;;;;;5041224;28;20227;-70
2022/01/12 12:58:02;;;;;;;2.75;2.55;;;10.30;64.90;;;;;;5044827;28;20280;-71
2022/01/12 13:00:29;;;;;;;5.60;2.58;;;10.30;64.40;;;;;;5045140;28;20222;-71
2022/01/12 13:02:59;;;;;;;3.78;2.42;;;10.30;63.40;;;;;;5046714;28;20194;-70
2022/01/12 13:05:29;;;;;;;4.45;3.15;;;10.30;64.50;;;;;;5043570;28;20214;-71
2022/01/12 13:07:58;;;;;;;4.45;2.58;;;10.40;64.50;;;;;;5045932;28;20273;-70
2022/01/12 13:10:27;;;;;;;3.22;2.92;;;10.10;62.30;;;;;;5043451;28;20285;-71
2022/01/12 13:12:56;;;;;;;4.03;2.78;;;10.00;61.90;;;;;;5045057;28;20215;-71
2022/01/12 13:15:25;;;;;;;3.05;2.15;;;10.00;62.60;;;;;;5044569;28;20223;-70
2022/01/12 13:18:03;;;;;;;2.83;2.53;;;10.10;63.10;;;;;;5097679;22;20222;-79
2022/01/12 13:23:20;;;;;;;2.78;2.58;;;10.40;63.30;;;;;;5044599;28;20194;-75
2022/01/12 13:25:47;;;;;;;3.53;2.40;;;10.50;63.30;;;;;;5043738;28;20246;-75
2022/01/12 13:28:14;;;;;;;3.30;2.90;;;10.60;63.80;;;;;;5044089;28;20222;-73
2022/01/12 13:30:50;;;;;;;3.15;2.95;;;10.70;65.20;;;;;;5047296;28;20226;-73
2022/01/12 13:33:27;;;;;;;3.00;2.80;;;10.80;65.20;;;;;;5046172;28;20199;-73
2022/01/12 13:35:55;;;;;;;2.85;2.65;;;10.90;65.10;;;;;;5051186;28;20268;-76
2022/01/12 13:38:30;;;;;;;3.00;2.72;;;10.90;64.00;;;;;;5047798;28;20295;-77
2022/01/12 13:41:06;;;;;;;3.40;3.10;;;10.90;64.90;;;;;;5046690;28;20210;-75
2022/01/12 13:43:34;;;;;;;3.28;2.22;;;11.00;65.20;;;;;;5050038;28;20202;-78
2022/01/12 13:46:04;;;;;;;3.58;2.80;;;11.10;65.20;;;;;;5050919;28;20488;-77
2022/01/12 13:48:32;;;;;;;3.03;2.78;;;11.10;65.00;;;;;;5047067;28;20246;-78
2022/01/12 13:51:03;;;;;;;3.10;2.90;;;11.10;65.10;;;;;;5048852;28;20305;-77
2022/01/12 13:53:38;;;;;;;2.85;2.55;;;11.00;63.60;;;;;;5050010;28;20286;-77
2022/01/12 13:56:07;;;;;;;2.60;2.40;;;10.90;63.20;;;;;;5050653;28;20593;-76
2022/01/12 13:58:36;;;;;;;2.42;2.30;;;10.80;62.40;;;;;;5050199;28;20291;-75
2022/01/12 14:01:07;;;;;;;2.40;2.20;;;10.80;62.90;;;;;;5047955;28;20661;-78
2022/01/12 14:03:44;;;;;;;2.88;2.67;;;10.90;62.90;;;;;;5052981;28;20240;-78
2022/01/12 14:06:16;;;;;;;2.83;2.47;;;10.80;63.40;;;;;;5043390;28;20221;-77